createdAt,value
2018-03-24T00:00:07.990Z,5.68
2018-03-24T00:01:07.977Z,5.81
2018-03-24T00:02:07.950Z,5.67
2018-03-24T00:03:07.927Z,5.76
2018-03-24T00:04:07.908Z,5.61
2018-03-24T00:05:07.890Z,5.60
2018-03-24T00:06:07.867Z,5.64
2018-03-24T00:07:07.849Z,5.58
2018-03-24T00:08:07.825Z,5.63
2018-03-24T00:09:07.810Z,5.58
2018-03-24T00:10:07.781Z,5.64
2018-03-24T00:11:07.766Z,5.58
2018-03-24T00:12:07.745Z,5.60
2018-03-24T00:13:07.722Z,5.63
2018-03-24T00:14:07.707Z,5.46
2018-03-24T00:15:07.681Z,5.51
2018-03-24T00:16:07.661Z,5.54
2018-03-24T00:17:07.643Z,5.54
2018-03-24T00:18:07.619Z,5.58
2018-03-24T00:19:07.597Z,5.58
2018-03-24T00:20:07.591Z,5.49
2018-03-24T00:21:07.556Z,5.56
2018-03-24T00:22:07.537Z,5.51
2018-03-24T00:23:07.516Z,5.48
2018-03-24T00:24:07.497Z,5.46
2018-03-24T00:25:07.476Z,5.53
2018-03-24T00:26:07.457Z,5.46
2018-03-24T00:27:07.438Z,5.45
2018-03-24T00:28:07.416Z,5.45
2018-03-24T00:29:07.394Z,5.39
2018-03-24T00:30:07.375Z,5.33
2018-03-24T00:31:07.348Z,5.21
2018-03-24T00:32:07.344Z,5.21
2018-03-24T00:33:07.310Z,5.24
2018-03-24T00:34:07.296Z,5.15
2018-03-24T00:35:07.276Z,5.10
2018-03-24T00:36:07.245Z,5.13
2018-03-24T00:37:07.226Z,5.13
2018-03-24T00:38:07.206Z,5.07
2018-03-24T00:39:07.185Z,5.04
2018-03-24T00:40:07.169Z,5.00
2018-03-24T00:41:07.150Z,5.03
2018-03-24T00:42:07.128Z,5.02
2018-03-24T00:43:07.099Z,5.03
2018-03-24T00:44:07.078Z,4.96
2018-03-24T00:45:07.066Z,4.91
2018-03-24T00:46:07.042Z,4.91
2018-03-24T00:47:07.016Z,4.94
2018-03-24T00:48:07.000Z,4.88
2018-03-24T00:49:07.000Z,4.82
2018-03-24T00:50:06.955Z,4.82
2018-03-24T00:51:06.941Z,4.77
2018-03-24T00:52:06.918Z,4.80
2018-03-24T00:53:06.896Z,4.84
2018-03-24T00:54:06.874Z,4.84
2018-03-24T00:55:06.852Z,4.69
2018-03-24T00:56:06.830Z,4.67
2018-03-24T00:57:06.814Z,4.50
2018-03-24T00:58:06.786Z,4.42
2018-03-24T00:59:06.766Z,4.29
2018-03-24T01:00:06.747Z,4.30
2018-03-24T01:01:06.723Z,4.23
2018-03-24T01:02:06.707Z,4.16
2018-03-24T01:03:06.682Z,4.23
2018-03-24T01:04:06.665Z,4.16
2018-03-24T01:05:06.644Z,4.18
2018-03-24T01:06:06.621Z,4.15
2018-03-24T01:07:06.597Z,4.22
2018-03-24T01:08:06.580Z,4.20
2018-03-24T01:09:06.565Z,4.08
2018-03-24T01:10:06.533Z,4.24
2018-03-24T01:11:06.517Z,4.22
2018-03-24T01:12:06.494Z,4.14
2018-03-24T01:13:06.480Z,4.20
2018-03-24T01:14:06.453Z,4.24
2018-03-24T01:15:06.429Z,4.23
2018-03-24T01:16:06.413Z,4.14
2018-03-24T01:17:06.386Z,4.20
2018-03-24T01:18:06.369Z,4.26
2018-03-24T01:19:06.370Z,4.29
2018-03-24T01:20:06.332Z,4.18
2018-03-24T01:21:06.304Z,4.22
2018-03-24T01:22:06.281Z,4.14
2018-03-24T01:23:06.263Z,4.09
2018-03-24T01:24:06.241Z,4.11
2018-03-24T01:25:06.225Z,4.15
2018-03-24T01:26:06.196Z,4.14
2018-03-24T01:27:06.186Z,4.08
2018-03-24T01:28:06.153Z,4.02
2018-03-24T01:29:06.134Z,4.00
2018-03-24T01:30:06.113Z,4.04
2018-03-24T01:31:06.090Z,4.04
2018-03-24T01:32:06.077Z,4.08
2018-03-24T01:33:06.050Z,4.11
2018-03-24T01:34:06.035Z,4.06
2018-03-24T01:35:06.007Z,4.16
2018-03-24T01:36:05.985Z,4.15
2018-03-24T01:37:05.962Z,4.15
2018-03-24T01:38:05.952Z,4.14
2018-03-24T01:39:05.921Z,4.14
2018-03-24T01:40:05.916Z,4.05
2018-03-24T01:41:05.884Z,4.05
2018-03-24T01:42:05.860Z,4.11
2018-03-24T01:43:05.836Z,4.06
2018-03-24T01:44:05.815Z,4.04
2018-03-24T01:45:05.799Z,4.08
2018-03-24T01:46:05.772Z,4.05
2018-03-24T01:47:05.757Z,4.05
2018-03-24T01:48:05.735Z,4.06
2018-03-24T01:49:05.710Z,4.06
2018-03-24T01:50:05.689Z,4.08
2018-03-24T01:51:05.670Z,4.11
2018-03-24T01:52:05.651Z,4.04
2018-03-24T01:53:05.625Z,4.05
2018-03-24T01:54:05.617Z,4.06
2018-03-24T01:55:05.584Z,3.97
2018-03-24T01:56:05.560Z,3.91
2018-03-24T01:57:05.539Z,3.90
2018-03-24T01:58:05.520Z,3.93
2018-03-24T01:59:05.496Z,3.94
2018-03-24T02:00:05.475Z,3.87
2018-03-24T02:01:05.456Z,3.96
2018-03-24T02:02:05.437Z,3.87
2018-03-24T02:03:05.415Z,3.88
2018-03-24T02:04:05.393Z,3.87
2018-03-24T02:05:05.369Z,3.88
2018-03-24T02:06:05.346Z,3.86
2018-03-24T02:07:05.330Z,3.84
2018-03-24T02:08:05.305Z,3.94
2018-03-24T02:09:05.284Z,3.90
2018-03-24T02:10:05.266Z,3.83
2018-03-24T02:11:05.241Z,3.88
2018-03-24T02:12:05.218Z,3.90
2018-03-24T02:13:05.205Z,3.84
2018-03-24T02:14:05.189Z,3.84
2018-03-24T02:15:05.161Z,3.83
2018-03-24T02:16:05.133Z,3.86
2018-03-24T02:17:05.114Z,3.80
2018-03-24T02:18:05.091Z,3.91
2018-03-24T02:19:05.072Z,3.80
2018-03-24T02:20:05.052Z,3.73
2018-03-24T02:21:05.026Z,3.72
2018-03-24T02:22:05.006Z,3.61
2018-03-24T02:23:04.986Z,3.57
2018-03-24T02:24:05.212Z,3.50
2018-03-24T02:25:04.946Z,3.48
2018-03-24T02:26:04.923Z,3.52
2018-03-24T02:27:04.903Z,3.50
2018-03-24T02:28:04.878Z,3.47
2018-03-24T02:29:04.856Z,3.47
2018-03-24T02:30:04.838Z,3.48
2018-03-24T02:31:04.819Z,3.48
2018-03-24T02:32:04.791Z,3.48
2018-03-24T02:33:04.776Z,3.50
2018-03-24T02:34:04.752Z,3.50
2018-03-24T02:35:04.726Z,3.52
2018-03-24T02:36:04.705Z,3.48
2018-03-24T02:37:04.687Z,3.50
2018-03-24T02:38:04.663Z,3.54
2018-03-24T02:39:04.640Z,3.54
2018-03-24T02:40:04.624Z,3.48
2018-03-24T02:41:04.605Z,3.47
2018-03-24T02:42:04.586Z,3.51
2018-03-24T02:43:04.559Z,3.50
2018-03-24T02:44:04.533Z,3.40
2018-03-24T02:45:04.524Z,3.47
2018-03-24T02:46:04.501Z,3.48
2018-03-24T02:47:04.472Z,3.45
2018-03-24T02:48:04.450Z,3.43
2018-03-24T02:49:04.436Z,3.43
2018-03-24T02:50:04.411Z,3.43
2018-03-24T02:51:04.381Z,3.45
2018-03-24T02:52:04.363Z,3.47
2018-03-24T02:53:04.351Z,3.47
2018-03-24T02:54:04.321Z,3.32
2018-03-24T02:55:04.299Z,3.48
2018-03-24T02:56:04.276Z,3.33
2018-03-24T02:57:04.255Z,3.40
2018-03-24T02:58:04.237Z,3.39
2018-03-24T02:59:04.212Z,3.42
2018-03-24T03:00:04.188Z,3.43
2018-03-24T03:01:04.176Z,3.42
2018-03-24T03:02:04.156Z,3.42
2018-03-24T03:03:04.125Z,3.29
2018-03-24T03:04:04.111Z,3.33
2018-03-24T03:05:04.085Z,3.32
2018-03-24T03:06:04.061Z,3.42
2018-03-24T03:07:04.047Z,3.43
2018-03-24T03:08:04.016Z,3.42
2018-03-24T03:09:04.001Z,3.40
2018-03-24T03:10:03.975Z,3.50
2018-03-24T03:11:03.951Z,3.47
2018-03-24T03:12:03.935Z,3.52
2018-03-24T03:13:03.912Z,3.48
2018-03-24T03:14:03.886Z,3.48
2018-03-24T03:15:03.866Z,3.32
2018-03-24T03:16:03.846Z,3.48
2018-03-24T03:17:03.828Z,3.42
2018-03-24T03:18:03.800Z,3.43
2018-03-24T03:19:03.779Z,3.39
2018-03-24T03:20:03.755Z,3.40
2018-03-24T03:21:03.737Z,3.36
2018-03-24T03:22:03.714Z,3.36
2018-03-24T03:23:03.693Z,3.36
2018-03-24T03:24:03.675Z,3.36
2018-03-24T03:25:03.650Z,3.32
2018-03-24T03:26:03.634Z,3.42
2018-03-24T03:27:03.606Z,3.31
2018-03-24T03:28:03.616Z,3.32
2018-03-24T03:29:03.562Z,3.33
2018-03-24T03:30:03.552Z,3.31
2018-03-24T03:31:03.516Z,3.31
2018-03-24T03:32:03.496Z,3.36
2018-03-24T03:33:03.514Z,3.33
2018-03-24T03:34:03.453Z,3.43
2018-03-24T03:35:03.430Z,3.43
2018-03-24T03:36:03.412Z,3.33
2018-03-24T03:37:03.386Z,3.45
2018-03-24T03:38:03.366Z,3.42
2018-03-24T03:39:03.347Z,3.47
2018-03-24T03:40:03.422Z,3.47
2018-03-24T03:41:03.301Z,3.50
2018-03-24T03:42:03.286Z,3.47
2018-03-24T03:43:03.260Z,3.45
2018-03-24T03:44:03.235Z,3.48
2018-03-24T03:45:03.213Z,3.50
2018-03-24T03:46:03.202Z,3.47
2018-03-24T03:47:03.173Z,3.35
2018-03-24T03:48:03.150Z,3.39
2018-03-24T03:49:03.127Z,3.50
2018-03-24T03:50:03.107Z,3.36
2018-03-24T03:51:03.086Z,3.45
2018-03-24T03:52:03.064Z,3.45
2018-03-24T03:53:03.040Z,3.42
2018-03-24T03:54:03.033Z,3.39
2018-03-24T03:55:02.996Z,3.40
2018-03-24T03:56:02.977Z,3.48
2018-03-24T03:57:02.957Z,3.50
2018-03-24T03:58:02.932Z,3.32
2018-03-24T03:59:02.912Z,3.42
2018-03-24T04:00:02.888Z,3.33
2018-03-24T04:01:02.864Z,3.29
2018-03-24T04:02:02.850Z,3.31
2018-03-24T04:03:02.826Z,3.31
2018-03-24T04:04:02.802Z,3.28
2018-03-24T04:05:02.781Z,3.24
2018-03-24T04:06:02.766Z,3.28
2018-03-24T04:07:02.736Z,3.24
2018-03-24T04:08:02.715Z,3.23
2018-03-24T04:09:02.694Z,3.23
2018-03-24T04:10:02.672Z,3.24
2018-03-24T04:11:02.651Z,3.26
2018-03-24T04:12:02.626Z,3.28
2018-03-24T04:13:02.603Z,3.29
2018-03-24T04:14:02.585Z,3.31
2018-03-24T04:15:02.565Z,3.28
2018-03-24T04:16:02.540Z,3.26
2018-03-24T04:17:02.522Z,3.29
2018-03-24T04:18:02.496Z,3.29
2018-03-24T04:19:02.477Z,3.24
2018-03-24T04:20:02.453Z,3.24
2018-03-24T04:21:02.429Z,3.20
2018-03-24T04:22:02.409Z,3.24
2018-03-24T04:23:02.393Z,3.28
2018-03-24T04:24:02.367Z,3.28
2018-03-24T04:25:02.343Z,3.26
2018-03-24T04:26:02.326Z,3.24
2018-03-24T04:27:02.301Z,3.17
2018-03-24T04:28:02.278Z,3.18
2018-03-24T04:29:02.258Z,3.24
2018-03-24T04:30:02.236Z,3.15
2018-03-24T04:31:02.215Z,3.31
2018-03-24T04:32:02.271Z,3.26
2018-03-24T04:33:02.186Z,3.28
2018-03-24T04:34:02.155Z,3.21
2018-03-24T04:35:02.125Z,3.21
2018-03-24T04:36:02.104Z,3.24
2018-03-24T04:37:02.084Z,3.21
2018-03-24T04:38:02.058Z,3.28
2018-03-24T04:39:02.036Z,3.14
2018-03-24T04:40:02.018Z,3.20
2018-03-24T04:41:01.994Z,3.14
2018-03-24T04:42:01.978Z,3.21
2018-03-24T04:43:01.948Z,3.23
2018-03-24T04:44:01.931Z,3.14
2018-03-24T04:45:01.914Z,3.24
2018-03-24T04:46:01.882Z,3.15
2018-03-24T04:47:01.862Z,3.21
2018-03-24T04:48:01.844Z,3.24
2018-03-24T04:49:01.820Z,3.18
2018-03-24T04:50:01.804Z,3.13
2018-03-24T04:51:01.775Z,3.11
2018-03-24T04:52:01.761Z,3.11
2018-03-24T04:53:01.734Z,3.18
2018-03-24T04:54:01.709Z,3.11
2018-03-24T04:55:01.684Z,3.02
2018-03-24T04:56:01.670Z,3.02
2018-03-24T04:57:01.654Z,3.05
2018-03-24T04:58:01.623Z,2.96
2018-03-24T04:59:01.602Z,2.95
2018-03-24T05:00:01.576Z,2.97
2018-03-24T05:01:01.556Z,2.99
2018-03-24T05:02:01.578Z,2.96
2018-03-24T05:03:01.509Z,2.90
2018-03-24T05:04:01.528Z,2.96
2018-03-24T05:05:01.475Z,2.97
2018-03-24T05:06:01.446Z,2.90
2018-03-24T05:07:01.423Z,2.93
2018-03-24T05:08:01.402Z,2.96
2018-03-24T05:09:01.384Z,2.92
2018-03-24T05:10:01.360Z,2.87
2018-03-24T05:11:01.337Z,2.90
2018-03-24T05:12:01.315Z,2.97
2018-03-24T05:13:01.295Z,2.92
2018-03-24T05:14:01.272Z,3.05
2018-03-24T05:15:01.247Z,2.95
2018-03-24T05:16:01.234Z,2.96
2018-03-24T05:17:01.205Z,2.96
2018-03-24T05:18:01.200Z,2.90
2018-03-24T05:19:01.164Z,2.82
2018-03-24T05:20:01.138Z,2.92
2018-03-24T05:21:01.118Z,2.89
2018-03-24T05:22:01.096Z,2.95
2018-03-24T05:23:01.072Z,2.96
2018-03-24T05:24:01.050Z,2.93
2018-03-24T05:25:01.036Z,2.93
2018-03-24T05:26:01.006Z,2.85
2018-03-24T05:27:00.987Z,2.90
2018-03-24T05:28:00.964Z,2.99
2018-03-24T05:29:00.939Z,2.92
2018-03-24T05:30:00.919Z,2.93
2018-03-24T05:31:00.900Z,2.99
2018-03-24T05:32:00.879Z,2.90
2018-03-24T05:33:00.854Z,2.81
2018-03-24T05:34:00.833Z,2.78
2018-03-24T05:35:00.806Z,2.74
2018-03-24T05:36:00.786Z,2.66
2018-03-24T05:37:00.765Z,2.64
2018-03-24T05:38:00.748Z,2.66
2018-03-24T05:39:00.750Z,2.52
2018-03-24T05:40:00.701Z,2.49
2018-03-24T05:41:00.681Z,2.49
2018-03-24T05:42:00.653Z,2.48
2018-03-24T05:43:00.632Z,2.43
2018-03-24T05:44:00.610Z,2.46
2018-03-24T05:45:00.591Z,2.45
2018-03-24T05:46:00.565Z,2.34
2018-03-24T05:47:00.543Z,2.28
2018-03-24T05:48:00.523Z,2.21
2018-03-24T05:49:00.505Z,2.17
2018-03-24T05:50:00.480Z,2.06
2018-03-24T05:51:00.456Z,1.86
2018-03-24T05:52:00.437Z,1.84
2018-03-24T05:53:00.414Z,1.87
2018-03-24T05:54:00.392Z,1.83
2018-03-24T05:55:00.371Z,1.87
2018-03-24T05:56:00.352Z,1.87
2018-03-24T05:57:00.321Z,1.90
2018-03-24T05:58:00.304Z,1.93
2018-03-24T05:59:00.277Z,1.91
2018-03-24T06:00:00.256Z,2.03
2018-03-24T06:01:00.234Z,2.00
2018-03-24T06:02:00.218Z,2.06
2018-03-24T06:03:00.192Z,2.16
2018-03-24T06:04:00.201Z,2.12
2018-03-24T06:05:00.145Z,2.21
2018-03-24T06:06:00.123Z,2.18
2018-03-24T06:07:00.100Z,2.18
2018-03-24T06:08:00.083Z,2.12
2018-03-24T06:09:00.054Z,2.06
2018-03-24T06:10:00.037Z,2.05
2018-03-24T06:11:00.016Z,2.02
2018-03-24T06:11:59.989Z,2.10
2018-03-24T06:12:59.979Z,2.10
2018-03-24T06:13:59.952Z,2.17
2018-03-24T06:14:59.928Z,2.16
2018-03-24T06:15:59.955Z,2.18
2018-03-24T06:16:59.880Z,2.25
2018-03-24T06:17:59.858Z,2.38
2018-03-24T06:18:59.836Z,2.35
2018-03-24T06:19:59.817Z,2.34
2018-03-24T06:20:59.790Z,2.56
2018-03-24T06:21:59.776Z,2.45
2018-03-24T06:22:59.748Z,2.56
2018-03-24T06:23:59.742Z,2.46
2018-03-24T06:24:59.703Z,2.42
2018-03-24T06:25:59.681Z,2.52
2018-03-24T06:26:59.656Z,2.56
2018-03-24T06:27:59.636Z,2.63
2018-03-24T06:28:59.611Z,2.69
2018-03-24T06:29:59.595Z,2.64
2018-03-24T06:30:59.570Z,2.72
2018-03-24T06:31:59.546Z,2.71
2018-03-24T06:32:59.525Z,2.67
2018-03-24T06:33:59.504Z,2.61
2018-03-24T06:34:59.482Z,2.59
2018-03-24T06:35:59.458Z,2.45
2018-03-24T06:36:59.436Z,2.49
2018-03-24T06:37:59.416Z,2.52
2018-03-24T06:38:59.435Z,2.52
2018-03-24T06:39:59.368Z,2.48
2018-03-24T06:40:59.351Z,2.42
2018-03-24T06:41:59.324Z,2.53
2018-03-24T06:42:59.306Z,2.49
2018-03-24T06:43:59.280Z,2.60
2018-03-24T06:44:59.320Z,2.66
2018-03-24T06:45:59.238Z,2.71
2018-03-24T06:46:59.210Z,2.81
2018-03-24T06:47:59.197Z,2.87
2018-03-24T06:48:59.172Z,2.90
2018-03-24T06:49:59.148Z,2.97
2018-03-24T06:50:59.124Z,3.08
2018-03-24T06:51:59.157Z,3.11
2018-03-24T06:52:59.085Z,3.21
2018-03-24T06:53:59.063Z,3.24
2018-03-24T06:54:59.046Z,3.39
2018-03-24T06:55:59.016Z,3.32
2018-03-24T06:56:59.000Z,3.43
2018-03-24T06:57:58.977Z,3.48
2018-03-24T06:58:58.950Z,3.45
2018-03-24T06:59:58.931Z,3.54
2018-03-24T07:00:58.905Z,3.54
2018-03-24T07:01:58.886Z,3.52
2018-03-24T07:02:58.863Z,3.55
2018-03-24T07:03:58.841Z,3.60
2018-03-24T07:04:58.833Z,3.62
2018-03-24T07:05:58.800Z,3.65
2018-03-24T07:06:58.772Z,3.69
2018-03-24T07:07:58.758Z,3.75
2018-03-24T07:08:58.730Z,3.72
2018-03-24T07:09:58.709Z,3.79
2018-03-24T07:10:58.689Z,3.79
2018-03-24T07:11:58.671Z,3.91
2018-03-24T07:12:58.643Z,3.93
2018-03-24T07:13:58.621Z,3.97
2018-03-24T07:14:58.596Z,4.06
2018-03-24T07:15:58.575Z,4.12
2018-03-24T07:16:58.563Z,4.14
2018-03-24T07:17:58.530Z,4.23
2018-03-24T07:18:58.509Z,4.27
2018-03-24T07:19:58.488Z,4.27
2018-03-24T07:20:58.471Z,4.30
2018-03-24T07:21:58.450Z,4.32
2018-03-24T07:22:58.419Z,4.44
2018-03-24T07:23:58.404Z,4.48
2018-03-24T07:24:58.380Z,4.54
2018-03-24T07:25:58.362Z,4.54
2018-03-24T07:26:58.336Z,4.62
2018-03-24T07:27:58.316Z,4.67
2018-03-24T07:28:58.315Z,4.67
2018-03-24T07:29:58.275Z,4.77
2018-03-24T07:30:58.248Z,4.80
2018-03-24T07:31:58.229Z,4.82
2018-03-24T07:32:58.213Z,4.86
2018-03-24T07:33:58.183Z,4.89
2018-03-24T07:34:58.166Z,4.96
2018-03-24T07:35:58.143Z,4.94
2018-03-24T07:36:58.124Z,4.99
2018-03-24T07:37:58.102Z,5.00
2018-03-24T07:38:58.080Z,5.07
2018-03-24T07:39:58.058Z,5.10
2018-03-24T07:40:58.034Z,5.06
2018-03-24T07:41:58.012Z,5.06
2018-03-24T07:42:57.992Z,5.12
2018-03-24T07:43:57.968Z,5.07
2018-03-24T07:44:57.956Z,5.22
2018-03-24T07:45:57.928Z,5.22
2018-03-24T07:46:57.908Z,5.31
2018-03-24T07:47:57.881Z,5.35
2018-03-24T07:48:57.862Z,5.31
2018-03-24T07:49:57.841Z,5.33
2018-03-24T07:50:57.820Z,5.43
2018-03-24T07:51:57.797Z,5.51
2018-03-24T07:52:57.786Z,5.56
2018-03-24T07:53:57.754Z,5.53
2018-03-24T07:54:57.735Z,5.65
2018-03-24T07:55:57.713Z,5.60
2018-03-24T07:56:57.691Z,5.61
2018-03-24T07:57:57.672Z,5.61
2018-03-24T07:58:57.651Z,5.74
2018-03-24T07:59:57.630Z,5.71
2018-03-24T08:00:57.607Z,5.81
2018-03-24T08:01:57.590Z,5.86
2018-03-24T08:02:57.571Z,5.86
2018-03-24T08:03:57.548Z,5.90
2018-03-24T08:04:57.524Z,5.93
2018-03-24T08:05:57.500Z,6.00
2018-03-24T08:06:57.489Z,6.17
2018-03-24T08:07:57.464Z,6.15
2018-03-24T08:08:57.437Z,6.19
2018-03-24T08:09:57.418Z,6.36
2018-03-24T08:10:57.398Z,6.28
2018-03-24T08:11:57.373Z,6.38
2018-03-24T08:12:57.353Z,6.43
2018-03-24T08:13:57.334Z,6.59
2018-03-24T08:14:57.311Z,6.64
2018-03-24T08:15:57.295Z,6.58
2018-03-24T08:16:57.277Z,6.64
2018-03-24T08:17:57.257Z,6.66
2018-03-24T08:18:57.232Z,6.74
2018-03-24T08:19:57.214Z,6.81
2018-03-24T08:20:57.187Z,6.97
2018-03-24T08:21:57.176Z,6.95
2018-03-24T08:22:57.141Z,7.05
2018-03-24T08:23:57.120Z,7.15
2018-03-24T08:24:57.110Z,7.15
2018-03-24T08:25:57.081Z,7.34
2018-03-24T08:26:57.064Z,7.23
2018-03-24T08:27:57.037Z,7.25
2018-03-24T08:28:57.018Z,7.23
2018-03-24T08:29:57.001Z,7.28
2018-03-24T08:30:56.978Z,7.34
2018-03-24T08:31:56.956Z,7.34
2018-03-24T08:32:56.937Z,7.28
2018-03-24T08:33:56.916Z,7.27
2018-03-24T08:34:56.895Z,7.25
2018-03-24T08:35:56.878Z,7.16
2018-03-24T08:36:56.856Z,7.25
2018-03-24T08:37:56.836Z,7.23
2018-03-24T08:38:56.815Z,7.20
2018-03-24T08:39:56.795Z,7.28
2018-03-24T08:40:56.779Z,7.35
2018-03-24T08:41:56.756Z,7.43
2018-03-24T08:42:56.732Z,7.50
2018-03-24T08:43:56.711Z,7.53
2018-03-24T08:44:56.698Z,7.67
2018-03-24T08:45:56.667Z,7.60
2018-03-24T08:46:56.655Z,7.67
2018-03-24T08:47:56.629Z,7.77
2018-03-24T08:48:56.610Z,7.75
2018-03-24T08:49:56.594Z,7.75
2018-03-24T08:50:56.577Z,7.72
2018-03-24T08:51:56.555Z,7.77
2018-03-24T08:52:56.535Z,7.77
2018-03-24T08:53:56.506Z,7.67
2018-03-24T08:54:56.489Z,7.74
2018-03-24T08:55:56.469Z,7.69
2018-03-24T08:56:56.456Z,7.64
2018-03-24T08:57:56.439Z,7.82
2018-03-24T08:58:56.410Z,7.77
2018-03-24T08:59:56.395Z,7.74
2018-03-24T09:00:56.367Z,7.85
2018-03-24T09:01:56.356Z,7.89
2018-03-24T09:02:56.323Z,7.85
2018-03-24T09:03:56.306Z,7.79
2018-03-24T09:04:56.287Z,7.79
2018-03-24T09:05:56.268Z,7.83
2018-03-24T09:06:56.246Z,7.83
2018-03-24T09:07:56.223Z,7.89
2018-03-24T09:08:56.204Z,7.85
2018-03-24T09:09:56.186Z,7.90
2018-03-24T09:10:56.162Z,7.95
2018-03-24T09:11:56.152Z,7.97
2018-03-24T09:12:56.122Z,8.01
2018-03-24T09:13:56.105Z,8.08
2018-03-24T09:14:56.085Z,8.16
2018-03-24T09:15:56.082Z,8.12
2018-03-24T09:16:56.061Z,8.25
2018-03-24T09:17:56.022Z,8.25
2018-03-24T09:18:56.004Z,8.41
2018-03-24T09:19:55.994Z,8.38
2018-03-24T09:20:55.965Z,8.40
2018-03-24T09:21:55.947Z,8.43
2018-03-24T09:22:55.925Z,8.55
2018-03-24T09:23:55.901Z,8.63
2018-03-24T09:24:55.885Z,8.65
2018-03-24T09:25:55.870Z,8.65
2018-03-24T09:26:55.845Z,8.61
2018-03-24T09:27:55.830Z,8.63
2018-03-24T09:28:55.817Z,8.66
2018-03-24T09:29:55.781Z,8.70
2018-03-24T09:30:55.771Z,8.55
2018-03-24T09:31:55.746Z,8.58
2018-03-24T09:32:55.728Z,8.58
2018-03-24T09:33:55.704Z,8.70
2018-03-24T09:34:55.695Z,8.74
2018-03-24T09:35:55.669Z,8.77
2018-03-24T09:36:55.656Z,8.92
2018-03-24T09:37:55.624Z,8.87
2018-03-24T09:38:55.607Z,8.91
2018-03-24T09:39:55.587Z,8.94
2018-03-24T09:40:55.566Z,9.01
2018-03-24T09:41:55.545Z,9.04
2018-03-24T09:42:55.526Z,9.08
2018-03-24T09:43:55.506Z,9.10
2018-03-24T09:44:55.486Z,9.11
2018-03-24T09:45:55.467Z,9.20
2018-03-24T09:46:55.451Z,9.17
2018-03-24T09:47:55.437Z,9.20
2018-03-24T09:48:55.406Z,9.26
2018-03-24T09:49:55.389Z,9.24
2018-03-24T09:50:55.371Z,9.21
2018-03-24T09:51:55.352Z,9.29
2018-03-24T09:52:55.375Z,9.24
2018-03-24T09:53:55.314Z,9.26
2018-03-24T09:54:55.307Z,9.28
2018-03-24T09:55:55.272Z,9.21
2018-03-24T09:56:55.306Z,9.32
2018-03-24T09:57:55.238Z,9.29
2018-03-24T09:58:55.213Z,9.14
2018-03-24T09:59:55.200Z,9.13
2018-03-24T10:00:55.175Z,9.11
2018-03-24T10:01:55.157Z,9.15
2018-03-24T10:02:55.138Z,9.26
2018-03-24T10:03:55.114Z,9.29
2018-03-24T10:04:55.109Z,9.24
2018-03-24T10:05:55.076Z,9.24
2018-03-24T10:06:55.056Z,9.32
2018-03-24T10:07:55.043Z,9.36
2018-03-24T10:08:55.026Z,9.31
2018-03-24T10:09:55.007Z,9.20
2018-03-24T10:10:54.985Z,9.29
2018-03-24T10:11:54.962Z,9.33
2018-03-24T10:12:54.947Z,9.35
2018-03-24T10:13:54.926Z,9.47
2018-03-24T10:14:54.907Z,9.58
2018-03-24T10:15:54.888Z,9.66
2018-03-24T10:16:54.866Z,9.72
2018-03-24T10:17:54.855Z,9.78
2018-03-24T10:18:54.828Z,9.90
2018-03-24T10:19:54.814Z,9.90
2018-03-24T10:20:54.789Z,9.91
2018-03-24T10:21:54.777Z,10.02
2018-03-24T10:22:54.754Z,10.08
2018-03-24T10:23:54.734Z,10.14
2018-03-24T10:24:54.714Z,10.23
2018-03-24T10:25:54.696Z,10.27
2018-03-24T10:26:54.681Z,10.38
2018-03-24T10:27:54.656Z,10.41
2018-03-24T10:28:54.702Z,10.41
2018-03-24T10:29:54.617Z,10.41
2018-03-24T10:30:54.595Z,10.33
2018-03-24T10:31:54.580Z,10.41
2018-03-24T10:32:54.566Z,10.34
2018-03-24T10:33:54.552Z,10.27
2018-03-24T10:34:54.532Z,10.20
2018-03-24T10:35:54.517Z,10.04
2018-03-24T10:36:54.485Z,9.96
2018-03-24T10:37:54.476Z,9.94
2018-03-24T10:38:54.445Z,10.07
2018-03-24T10:39:54.433Z,10.15
2018-03-24T10:40:54.413Z,10.26
2018-03-24T10:41:54.393Z,10.38
2018-03-24T10:42:54.380Z,10.38
2018-03-24T10:43:54.356Z,10.48
2018-03-24T10:44:54.335Z,10.51
2018-03-24T10:45:54.316Z,10.61
2018-03-24T10:46:54.295Z,10.53
2018-03-24T10:47:54.276Z,10.64
2018-03-24T10:48:54.258Z,10.67
2018-03-24T10:49:54.237Z,10.53
2018-03-24T10:50:54.228Z,10.68
2018-03-24T10:51:54.204Z,10.67
2018-03-24T10:52:54.182Z,10.79
2018-03-24T10:53:54.170Z,10.74
2018-03-24T10:54:54.150Z,10.76
2018-03-24T10:55:54.129Z,10.61
2018-03-24T10:56:54.110Z,10.64
2018-03-24T10:57:54.097Z,10.53
2018-03-24T10:58:54.075Z,10.53
2018-03-24T10:59:54.061Z,10.53
2018-03-24T11:00:54.039Z,10.34
2018-03-24T11:01:54.014Z,10.33
2018-03-24T11:02:53.997Z,10.30
2018-03-24T11:03:53.983Z,10.26
2018-03-24T11:04:53.959Z,10.14
2018-03-24T11:05:53.943Z,10.30
2018-03-24T11:06:53.924Z,10.33
2018-03-24T11:07:53.904Z,10.27
2018-03-24T11:08:53.894Z,10.44
2018-03-24T11:09:53.869Z,10.36
2018-03-24T11:10:53.847Z,10.55
2018-03-24T11:11:53.832Z,10.55
2018-03-24T11:12:53.809Z,10.63
2018-03-24T11:13:53.793Z,10.53
2018-03-24T11:14:53.776Z,10.73
2018-03-24T11:15:53.759Z,10.73
2018-03-24T11:16:53.734Z,10.74
2018-03-24T11:17:53.717Z,10.82
2018-03-24T11:18:53.700Z,10.71
2018-03-24T11:19:53.687Z,10.53
2018-03-24T11:20:53.664Z,10.45
2018-03-24T11:21:53.647Z,10.45
2018-03-24T11:22:53.624Z,10.38
2018-03-24T11:23:53.606Z,10.33
2018-03-24T11:24:53.588Z,10.27
2018-03-24T11:25:53.574Z,10.27
2018-03-24T11:26:53.546Z,10.11
2018-03-24T11:27:53.528Z,10.17
2018-03-24T11:28:53.513Z,10.11
2018-03-24T11:29:53.499Z,10.11
2018-03-24T11:30:53.473Z,10.17
2018-03-24T11:31:53.458Z,10.20
2018-03-24T11:32:53.434Z,10.14
2018-03-24T11:33:53.423Z,10.15
2018-03-24T11:34:53.404Z,10.15
2018-03-24T11:35:53.377Z,10.20
2018-03-24T11:36:53.363Z,10.23
2018-03-24T11:37:53.347Z,10.26
2018-03-24T11:38:53.373Z,10.17
2018-03-24T11:39:53.309Z,10.20
2018-03-24T11:40:53.289Z,10.26
2018-03-24T11:41:53.272Z,10.30
2018-03-24T11:42:53.249Z,10.36
2018-03-24T11:43:53.234Z,10.40
2018-03-24T11:44:53.232Z,10.18
2018-03-24T11:45:53.195Z,10.07
2018-03-24T11:46:53.181Z,10.07
2018-03-24T11:47:53.162Z,10.22
2018-03-24T11:48:53.134Z,10.29
2018-03-24T11:49:53.115Z,10.40
2018-03-24T11:50:53.100Z,10.40
2018-03-24T11:51:53.079Z,10.29
2018-03-24T11:52:53.065Z,10.33
2018-03-24T11:53:53.048Z,10.47
2018-03-24T11:54:53.023Z,10.55
2018-03-24T11:55:53.011Z,10.55
2018-03-24T11:56:52.986Z,10.55
2018-03-24T11:57:52.977Z,10.55
2018-03-24T11:58:52.953Z,10.44
2018-03-24T11:59:52.935Z,10.45
2018-03-24T12:00:52.918Z,10.45
2018-03-24T12:01:52.897Z,10.42
2018-03-24T12:02:52.872Z,10.44
2018-03-24T12:03:52.860Z,10.38
2018-03-24T12:04:52.835Z,10.34
2018-03-24T12:05:52.817Z,10.36
2018-03-24T12:06:52.806Z,10.44
2018-03-24T12:07:52.793Z,10.52
2018-03-24T12:08:52.759Z,10.53
2018-03-24T12:09:52.737Z,10.66
2018-03-24T12:10:52.724Z,10.78
2018-03-24T12:11:52.715Z,10.91
2018-03-24T12:12:52.687Z,10.89
2018-03-24T12:13:52.668Z,10.78
2018-03-24T12:14:52.649Z,10.85
2018-03-24T12:15:52.638Z,10.76
2018-03-24T12:16:52.623Z,10.64
2018-03-24T12:17:52.601Z,10.64
2018-03-24T12:18:52.579Z,10.55
2018-03-24T12:19:52.557Z,10.48
2018-03-24T12:20:52.537Z,10.63
2018-03-24T12:21:52.518Z,10.59
2018-03-24T12:22:52.508Z,10.59
2018-03-24T12:23:52.477Z,10.60
2018-03-24T12:24:52.464Z,10.70
2018-03-24T12:25:52.450Z,10.66
2018-03-24T12:26:52.425Z,10.78
2018-03-24T12:27:52.407Z,10.89
2018-03-24T12:28:52.385Z,11.06
2018-03-24T12:29:52.363Z,11.25
2018-03-24T12:30:52.348Z,11.36
2018-03-24T12:31:52.331Z,11.33
2018-03-24T12:32:52.308Z,11.46
2018-03-24T12:33:52.295Z,11.42
2018-03-24T12:34:52.273Z,11.42
2018-03-24T12:35:52.254Z,11.47
2018-03-24T12:36:52.237Z,11.44
2018-03-24T12:37:52.215Z,11.46
2018-03-24T12:38:52.207Z,11.37
2018-03-24T12:39:52.186Z,11.46
2018-03-24T12:40:52.161Z,11.49
2018-03-24T12:41:52.142Z,11.72
2018-03-24T12:42:52.128Z,11.58
2018-03-24T12:43:52.104Z,11.46
2018-03-24T12:44:52.095Z,11.44
2018-03-24T12:45:52.072Z,11.44
2018-03-24T12:46:52.049Z,11.37
2018-03-24T12:47:52.039Z,11.43
2018-03-24T12:48:52.015Z,11.33
2018-03-24T12:49:51.997Z,11.46
2018-03-24T12:50:51.979Z,11.33
2018-03-24T12:51:51.956Z,11.44
2018-03-24T12:52:51.938Z,11.32
2018-03-24T12:53:51.922Z,11.33
2018-03-24T12:54:51.903Z,11.24
2018-03-24T12:55:51.884Z,11.11
2018-03-24T12:56:51.867Z,11.09
2018-03-24T12:57:51.852Z,11.06
2018-03-24T12:58:51.829Z,10.94
2018-03-24T12:59:51.812Z,10.84
2018-03-24T13:00:51.796Z,10.84
2018-03-24T13:01:51.777Z,10.82
2018-03-24T13:02:51.758Z,10.74
2018-03-24T13:03:51.747Z,10.64
2018-03-24T13:04:51.723Z,10.67
2018-03-24T13:05:51.703Z,10.68
2018-03-24T13:06:51.682Z,10.66
2018-03-24T13:07:51.668Z,10.60
2018-03-24T13:08:51.662Z,10.53
2018-03-24T13:09:51.631Z,10.67
2018-03-24T13:10:51.614Z,10.66
2018-03-24T13:11:51.592Z,10.59